createdAt,value
2022-11-18T00:01:14.504Z,2.42
2022-11-18T00:03:42.118Z,2.13
2022-11-18T00:06:12.939Z,2.40
2022-11-18T00:08:39.941Z,2.30
2022-11-18T00:11:12.208Z,2.65
2022-11-18T00:13:57.659Z,3.05
2022-11-18T00:16:24.720Z,2.70
2022-11-18T00:18:51.700Z,3.47
2022-11-18T00:21:18.497Z,3.10
2022-11-18T00:23:45.209Z,3.13
2022-11-18T00:26:13.670Z,3.10
2022-11-18T00:28:41.191Z,3.00
2022-11-18T00:31:12.555Z,2.97
2022-11-18T00:33:40.042Z,3.05
2022-11-18T00:36:09.265Z,3.42
2022-11-18T00:38:36.075Z,3.10
2022-11-18T00:41:12.278Z,3.13
2022-11-18T00:43:39.396Z,2.85
2022-11-18T00:46:08.170Z,3.50
2022-11-18T00:48:35.417Z,2.55
2022-11-18T00:51:17.161Z,3.50
2022-11-18T00:53:44.736Z,3.37
2022-11-18T00:56:11.680Z,3.10
2022-11-18T00:58:38.423Z,3.10
2022-11-18T01:01:05.375Z,3.00
2022-11-18T01:03:32.364Z,3.05
2022-11-18T01:05:59.077Z,3.67
2022-11-18T01:08:25.947Z,3.30
2022-11-18T01:10:52.759Z,3.55
2022-11-18T01:13:22.941Z,2.72
2022-11-18T01:15:52.592Z,3.60
2022-11-18T01:18:22.609Z,3.03
2022-11-18T01:20:49.458Z,2.80
2022-11-18T01:23:17.121Z,3.30
2022-11-18T01:25:45.014Z,2.90
2022-11-18T01:28:12.448Z,3.10
2022-11-18T01:30:41.427Z,3.40
2022-11-18T01:33:08.859Z,3.38
2022-11-18T01:35:41.891Z,2.85
2022-11-18T01:38:10.776Z,3.08
2022-11-18T01:40:38.556Z,3.38
2022-11-18T01:43:19.276Z,3.23
2022-11-18T01:45:48.769Z,3.55
2022-11-18T01:48:23.522Z,3.28
2022-11-18T01:51:06.073Z,3.42
2022-11-18T01:53:37.082Z,3.15
2022-11-18T01:56:10.958Z,3.70
2022-11-18T01:58:43.300Z,3.70
2022-11-18T02:01:09.983Z,3.50
2022-11-18T02:03:37.000Z,3.60
2022-11-18T02:06:06.498Z,3.42
2022-11-18T02:08:37.530Z,3.60
2022-11-18T02:11:05.687Z,3.65
2022-11-18T02:13:32.496Z,3.40
2022-11-18T02:16:11.469Z,3.22
2022-11-18T02:19:13.332Z,3.53
2022-11-18T02:21:54.740Z,3.93
2022-11-18T02:24:27.732Z,3.83
2022-11-18T02:27:01.689Z,3.22
2022-11-18T02:30:02.786Z,3.10
2022-11-18T02:32:44.125Z,3.40
2022-11-18T02:35:15.891Z,3.10
2022-11-18T02:37:52.327Z,3.65
2022-11-18T02:40:24.991Z,3.38
2022-11-18T02:42:58.272Z,3.88
2022-11-18T02:45:28.076Z,3.90
2022-11-18T02:47:56.612Z,3.60
2022-11-18T02:50:26.470Z,3.67
2022-11-18T02:52:58.284Z,3.65
2022-11-18T02:55:29.039Z,3.72
2022-11-18T02:57:57.245Z,4.03
2022-11-18T03:00:23.858Z,3.60
2022-11-18T03:02:50.935Z,3.88
2022-11-18T03:05:26.258Z,3.80
2022-11-18T03:07:57.751Z,3.20
2022-11-18T03:10:30.124Z,3.47
2022-11-18T03:13:11.673Z,4.17
2022-11-18T03:16:06.285Z,3.80
2022-11-18T03:18:54.441Z,4.03
2022-11-18T03:21:51.476Z,4.07
2022-11-18T03:24:26.953Z,3.50
2022-11-18T03:27:00.061Z,4.07
2022-11-18T03:29:32.679Z,4.28
2022-11-18T03:32:30.344Z,3.85
2022-11-18T03:35:05.345Z,3.92
2022-11-18T03:37:34.263Z,3.80
2022-11-18T03:40:31.176Z,3.60
2022-11-18T03:43:05.566Z,3.63
2022-11-18T03:45:42.631Z,3.72
2022-11-18T03:48:23.257Z,4.05
2022-11-18T03:50:59.654Z,3.95
2022-11-18T03:53:29.240Z,3.90
2022-11-18T03:56:06.051Z,3.88
2022-11-18T03:58:51.299Z,3.13
2022-11-18T04:01:24.942Z,4.00
2022-11-18T04:03:51.685Z,3.92
2022-11-18T04:06:55.436Z,3.93
2022-11-18T04:09:28.903Z,3.53
2022-11-18T04:12:05.031Z,3.75
2022-11-18T04:14:37.176Z,3.50
2022-11-18T04:17:13.462Z,3.58
2022-11-18T04:19:40.398Z,3.83
2022-11-18T04:22:07.837Z,4.03
2022-11-18T04:24:34.499Z,4.60
2022-11-18T04:27:02.654Z,3.97
2022-11-18T04:29:30.586Z,3.70
2022-11-18T04:31:57.535Z,4.00
2022-11-18T04:34:24.120Z,3.95
2022-11-18T04:36:50.796Z,3.72
2022-11-18T04:39:18.385Z,4.03
2022-11-18T04:41:57.908Z,4.38
2022-11-18T04:44:28.715Z,3.70
2022-11-18T04:46:57.084Z,3.47
2022-11-18T04:49:25.005Z,3.75
2022-11-18T04:51:52.376Z,4.13
2022-11-18T04:54:19.747Z,3.53
2022-11-18T04:56:49.308Z,4.17
2022-11-18T04:59:20.133Z,3.60
2022-11-18T05:01:48.023Z,3.80
2022-11-18T05:04:17.024Z,3.53
2022-11-18T05:06:43.960Z,4.05
2022-11-18T05:09:11.083Z,3.77
2022-11-18T05:11:56.963Z,4.00
2022-11-18T05:14:26.907Z,3.42
2022-11-18T05:16:54.993Z,3.55
2022-11-18T05:19:21.604Z,3.53
2022-11-18T05:21:48.490Z,3.80
2022-11-18T05:24:15.232Z,3.50
2022-11-18T05:26:42.052Z,3.88
2022-11-18T05:29:08.737Z,3.70
2022-11-18T05:31:35.325Z,3.80
2022-11-18T05:34:02.028Z,4.10
2022-11-18T05:36:28.656Z,4.20
2022-11-18T05:38:58.026Z,3.65
2022-11-18T05:41:43.192Z,4.05
2022-11-18T05:44:09.788Z,3.70
2022-11-18T05:46:36.396Z,3.53
2022-11-18T05:49:03.048Z,3.80
2022-11-18T05:51:29.658Z,3.90
2022-11-18T05:53:57.380Z,3.85
2022-11-18T05:56:27.244Z,3.75
2022-11-18T05:58:53.888Z,3.43
2022-11-18T06:01:33.086Z,3.60
2022-11-18T06:04:02.664Z,4.03
2022-11-18T06:06:29.323Z,3.88
2022-11-18T06:09:06.715Z,3.55
2022-11-18T06:11:45.697Z,3.90
2022-11-18T06:14:19.202Z,3.40
2022-11-18T06:16:51.153Z,3.45
2022-11-18T06:19:18.438Z,3.38
2022-11-18T06:21:46.312Z,4.18
2022-11-18T06:24:14.059Z,4.27
2022-11-18T06:26:41.545Z,4.25
2022-11-18T06:29:09.902Z,3.83
2022-11-18T06:31:37.151Z,3.63
2022-11-18T06:34:03.868Z,3.78
2022-11-18T06:36:30.500Z,3.50
2022-11-18T06:38:57.116Z,3.95
2022-11-18T06:41:23.729Z,4.07
2022-11-18T06:43:50.283Z,3.95
2022-11-18T06:46:36.225Z,3.60
2022-11-18T06:49:03.285Z,3.60
2022-11-18T06:51:30.501Z,4.07
2022-11-18T06:53:57.220Z,3.83
2022-11-18T06:56:23.905Z,3.95
2022-11-18T06:58:55.016Z,4.03
2022-11-18T07:01:24.804Z,3.83
2022-11-18T07:03:52.293Z,3.65
2022-11-18T07:06:23.781Z,3.35
2022-11-18T07:08:51.546Z,3.33
2022-11-18T07:11:20.582Z,4.55
2022-11-18T07:13:47.894Z,3.50
2022-11-18T07:16:17.658Z,4.53
2022-11-18T07:18:45.485Z,4.53
2022-11-18T07:21:18.252Z,4.20
2022-11-18T07:23:45.312Z,3.20
2022-11-18T07:26:12.932Z,4.20
2022-11-18T07:28:39.708Z,3.47
2022-11-18T07:31:08.939Z,3.85
2022-11-18T07:33:37.107Z,3.95
2022-11-18T07:36:09.820Z,3.50
2022-11-18T07:38:36.641Z,3.67
2022-11-18T07:41:07.836Z,3.80
2022-11-18T07:43:35.501Z,3.88
2022-11-18T07:46:29.836Z,3.88
2022-11-18T07:48:58.489Z,3.50
2022-11-18T07:51:28.239Z,4.20
2022-11-18T07:53:54.955Z,3.55
2022-11-18T07:56:22.343Z,4.10
2022-11-18T07:58:55.476Z,3.60
2022-11-18T08:01:24.594Z,3.97
2022-11-18T08:03:51.332Z,3.63
2022-11-18T08:06:19.082Z,3.45
2022-11-18T08:08:46.417Z,3.50
2022-11-18T08:11:21.659Z,3.63
2022-11-18T08:13:49.266Z,3.50
2022-11-18T08:16:19.224Z,3.57
2022-11-18T08:18:46.673Z,3.45
2022-11-18T08:21:14.645Z,4.13
2022-11-18T08:23:42.419Z,3.72
2022-11-18T08:26:16.010Z,4.28
2022-11-18T08:28:43.922Z,3.77
2022-11-18T08:31:17.001Z,3.80
2022-11-18T08:33:44.275Z,3.40
2022-11-18T08:36:20.009Z,3.58
2022-11-18T08:38:46.789Z,3.83
2022-11-18T08:41:15.676Z,3.93
2022-11-18T08:43:42.322Z,3.85
2022-11-18T08:46:08.957Z,3.33
2022-11-18T08:48:35.844Z,3.60
2022-11-18T08:51:02.648Z,3.88
2022-11-18T08:53:29.299Z,3.50
2022-11-18T08:55:59.804Z,3.67
2022-11-18T08:58:27.064Z,3.60
2022-11-18T09:00:53.848Z,3.95
2022-11-18T09:03:20.660Z,3.50
2022-11-18T09:05:47.551Z,3.40
2022-11-18T09:08:15.333Z,3.67
2022-11-18T09:10:42.064Z,3.70
2022-11-18T09:13:40.031Z,4.05
2022-11-18T09:15:58.493Z,3.55
2022-11-18T09:18:25.268Z,3.37
2022-11-18T09:20:59.873Z,4.40
2022-11-18T09:23:26.934Z,3.92
2022-11-18T09:26:04.258Z,3.85
2022-11-18T09:28:31.491Z,3.65
2022-11-18T09:30:58.365Z,3.67
2022-11-18T09:33:28.619Z,3.45
2022-11-18T09:38:44.205Z,3.42
2022-11-18T09:44:47.930Z,3.20
2022-11-18T09:47:32.312Z,3.13
2022-11-18T09:50:20.427Z,3.45
2022-11-18T09:53:06.549Z,3.00
2022-11-18T09:55:37.331Z,2.95
2022-11-18T09:58:04.914Z,2.67
2022-11-18T10:00:36.961Z,2.88
2022-11-18T10:03:22.955Z,2.78
2022-11-18T10:06:04.149Z,3.10
2022-11-18T10:08:33.283Z,2.90
2022-11-18T10:11:17.229Z,2.80
2022-11-18T10:14:19.858Z,2.65
2022-11-18T10:17:07.241Z,2.90
2022-11-18T10:19:55.347Z,2.75
2022-11-18T10:22:33.891Z,2.70
2022-11-18T10:25:02.574Z,2.67
2022-11-18T10:27:53.847Z,2.75
2022-11-18T10:30:24.155Z,2.70
2022-11-18T10:33:00.032Z,2.90
2022-11-18T10:35:26.739Z,2.90
2022-11-18T10:38:24.388Z,3.20
2022-11-18T10:41:01.506Z,2.90
2022-11-18T10:43:52.496Z,2.92
2022-11-18T10:46:27.668Z,3.33
2022-11-18T10:49:09.677Z,3.15
2022-11-18T10:51:41.980Z,2.73
2022-11-18T10:54:22.746Z,3.45
2022-11-18T10:56:58.038Z,3.30
2022-11-18T10:59:33.223Z,2.97
2022-11-18T11:02:20.928Z,3.22
2022-11-18T11:04:50.747Z,3.20
2022-11-18T11:07:35.040Z,3.28
2022-11-18T11:10:04.781Z,3.50
2022-11-18T11:12:37.460Z,3.30
2022-11-18T11:15:24.638Z,3.50
2022-11-18T11:18:16.317Z,3.40
2022-11-18T11:20:43.194Z,3.00
2022-11-18T11:23:18.980Z,3.10
2022-11-18T11:28:58.220Z,3.10
2022-11-18T11:31:37.277Z,3.07
2022-11-18T11:34:25.672Z,3.15
2022-11-18T11:37:03.700Z,3.05
2022-11-18T11:40:02.585Z,2.80
2022-11-18T11:42:53.413Z,3.30
2022-11-18T11:45:26.510Z,3.13
2022-11-18T11:48:26.975Z,3.28
2022-11-18T11:51:05.067Z,3.70
2022-11-18T11:53:50.385Z,3.72
2022-11-18T11:56:42.024Z,3.30
2022-11-18T11:59:30.657Z,3.10
2022-11-18T12:02:32.076Z,3.28
2022-11-18T12:05:01.941Z,3.33
2022-11-18T12:07:32.383Z,3.72
2022-11-18T12:10:37.650Z,3.85
2022-11-18T12:13:25.529Z,3.57
2022-11-18T12:15:57.678Z,3.55
2022-11-18T12:18:42.747Z,4.15
2022-11-18T12:21:34.831Z,4.10
2022-11-18T12:24:33.512Z,3.97
2022-11-18T12:27:27.621Z,3.87
2022-11-18T12:29:59.843Z,3.25
2022-11-18T12:32:31.781Z,3.60
2022-11-18T12:35:21.857Z,3.70
2022-11-18T12:37:51.223Z,3.75
2022-11-18T12:40:38.816Z,3.83
2022-11-18T12:43:36.945Z,4.00
2022-11-18T12:46:03.910Z,3.50
2022-11-18T12:48:32.499Z,4.00
2022-11-18T12:51:01.903Z,3.80
2022-11-18T12:53:47.556Z,4.50
2022-11-18T12:56:33.455Z,4.63
2022-11-18T12:59:06.708Z,4.38
2022-11-18T13:01:36.535Z,4.78
2022-11-18T13:04:18.079Z,4.72
2022-11-18T13:06:44.949Z,4.60
2022-11-18T13:09:26.121Z,4.65
2022-11-18T13:12:00.609Z,4.65
2022-11-18T13:14:53.637Z,4.70
2022-11-18T13:17:56.079Z,4.38
2022-11-18T13:20:38.550Z,5.80
2022-11-18T13:23:36.802Z,4.50
2022-11-18T13:26:45.250Z,4.40
2022-11-18T13:29:30.640Z,4.03
2022-11-18T13:32:15.719Z,5.10
2022-11-18T13:34:51.239Z,5.20
2022-11-18T13:37:35.254Z,6.43
2022-11-18T13:42:45.343Z,6.50
2022-11-18T13:45:14.354Z,5.90
2022-11-18T13:48:07.297Z,5.53
2022-11-18T13:50:51.255Z,5.68
2022-11-18T13:53:24.091Z,5.85
2022-11-18T13:55:56.494Z,6.00
2022-11-18T13:59:20.903Z,6.68
2022-11-18T14:01:55.462Z,7.10
2022-11-18T14:04:32.024Z,7.85
2022-11-18T14:07:25.276Z,7.47
2022-11-18T14:10:05.648Z,8.55
2022-11-18T14:12:34.721Z,7.85
2022-11-18T14:15:23.411Z,7.87
2022-11-18T14:18:01.853Z,7.22
2022-11-18T14:20:32.222Z,7.47
2022-11-18T14:23:05.435Z,7.65
2022-11-18T14:25:34.945Z,8.75
2022-11-18T14:28:36.709Z,7.03
2022-11-18T14:31:05.370Z,7.45
2022-11-18T14:33:36.123Z,7.47
2022-11-18T14:36:11.507Z,7.38
2022-11-18T14:39:24.949Z,7.13
2022-11-18T14:41:49.894Z,7.60
2022-11-18T14:44:18.601Z,7.60
2022-11-18T14:46:53.318Z,7.07
2022-11-18T14:49:22.735Z,7.50
2022-11-18T14:51:51.720Z,7.25
2022-11-18T14:54:26.304Z,7.03
2022-11-18T14:57:16.130Z,7.15
2022-11-18T14:59:44.095Z,7.05
2022-11-18T15:02:18.729Z,7.53
2022-11-18T15:04:46.745Z,7.15
2022-11-18T15:07:21.505Z,8.20
2022-11-18T15:09:49.665Z,7.05
2022-11-18T15:12:17.376Z,7.82
2022-11-18T15:14:44.004Z,7.35
2022-11-18T15:17:12.112Z,7.53
2022-11-18T15:19:40.605Z,7.77
2022-11-18T15:22:08.219Z,7.07
2022-11-18T15:24:35.200Z,7.65
2022-11-18T15:27:05.288Z,7.10
2022-11-18T15:29:32.463Z,7.35
2022-11-18T15:31:59.983Z,8.17
2022-11-18T15:34:26.717Z,7.22
2022-11-18T15:36:53.291Z,7.00
2022-11-18T15:39:19.923Z,6.05
2022-11-18T15:41:46.543Z,6.40
2022-11-18T15:44:13.208Z,6.60
2022-11-18T15:46:40.428Z,6.35
2022-11-18T15:49:09.830Z,6.00
2022-11-18T15:51:36.994Z,6.25
2022-11-18T15:54:03.859Z,7.00
2022-11-18T15:56:31.217Z,7.30
2022-11-18T15:59:03.896Z,5.70
2022-11-18T16:01:33.935Z,6.45
2022-11-18T16:04:01.854Z,6.25
2022-11-18T16:06:28.673Z,5.60
2022-11-18T16:08:59.571Z,5.97
2022-11-18T16:11:47.086Z,6.15
2022-11-18T16:14:16.090Z,6.53
2022-11-18T16:16:44.727Z,6.72
2022-11-18T16:19:13.697Z,6.50
2022-11-18T16:21:42.397Z,6.30
2022-11-18T16:24:12.740Z,7.00
2022-11-18T16:26:39.804Z,6.65
2022-11-18T16:29:07.514Z,6.95
2022-11-18T16:31:40.745Z,6.35
2022-11-18T16:34:13.650Z,7.00
2022-11-18T16:36:42.235Z,6.72
2022-11-18T16:39:10.323Z,7.03
2022-11-18T16:41:37.758Z,7.25
2022-11-18T16:44:06.851Z,6.88
2022-11-18T16:46:35.135Z,7.13
2022-11-18T16:49:02.491Z,6.55
2022-11-18T16:51:31.030Z,6.72
2022-11-18T16:53:59.745Z,6.55
2022-11-18T16:56:28.598Z,6.55
2022-11-18T16:59:06.958Z,7.43
2022-11-18T17:01:33.888Z,7.30
2022-11-18T17:04:01.130Z,7.93
2022-11-18T17:06:29.731Z,7.88
2022-11-18T17:08:57.652Z,8.43
2022-11-18T17:11:24.289Z,7.80
2022-11-18T17:13:56.322Z,8.00
2022-11-18T17:16:24.999Z,7.88
2022-11-18T17:18:56.514Z,8.00
2022-11-18T17:21:23.791Z,8.25
2022-11-18T17:23:51.362Z,8.50
2022-11-18T17:26:20.660Z,8.00
2022-11-18T17:28:47.731Z,8.88
2022-11-18T17:31:16.786Z,8.57
2022-11-18T17:33:44.194Z,8.95
2022-11-18T17:36:18.268Z,9.23
2022-11-18T17:38:47.211Z,7.13
2022-11-18T17:41:36.786Z,9.32
2022-11-18T17:44:05.581Z,9.35
2022-11-18T17:46:37.815Z,9.27
2022-11-18T17:49:06.988Z,10.00
2022-11-18T17:51:34.338Z,11.13
2022-11-18T17:54:01.013Z,11.23
2022-11-18T17:56:27.784Z,11.40
2022-11-18T17:58:54.589Z,11.93
2022-11-18T18:01:22.732Z,12.43
2022-11-18T18:03:49.618Z,13.52
2022-11-18T18:06:17.297Z,13.10
2022-11-18T18:08:44.029Z,14.55
2022-11-18T18:11:16.422Z,14.38
2022-11-18T18:14:02.142Z,13.67
2022-11-18T18:16:30.660Z,13.55
2022-11-18T18:18:59.278Z,12.93
2022-11-18T18:21:26.525Z,13.55
2022-11-18T18:23:53.280Z,13.20
2022-11-18T18:26:19.915Z,12.93
2022-11-18T18:28:46.545Z,11.93
2022-11-18T18:31:16.375Z,13.23
2022-11-18T18:33:43.225Z,14.13
2022-11-18T18:36:15.074Z,14.02
2022-11-18T18:38:42.745Z,13.60
2022-11-18T18:41:15.181Z,13.30
2022-11-18T18:43:42.266Z,13.15
2022-11-18T18:46:30.797Z,11.65
2022-11-18T18:49:20.161Z,12.55
2022-11-18T18:51:50.661Z,11.80
2022-11-18T18:54:19.386Z,11.43
2022-11-18T18:56:50.054Z,12.27
2022-11-18T18:59:16.797Z,11.60
2022-11-18T19:01:43.527Z,12.23
2022-11-18T19:04:17.467Z,11.20
2022-11-18T19:06:55.032Z,10.55
2022-11-18T19:09:25.643Z,11.20
2022-11-18T19:12:10.957Z,12.40
2022-11-18T19:14:37.670Z,11.15
2022-11-18T19:17:10.148Z,11.80
2022-11-18T19:19:58.169Z,10.82
2022-11-18T19:22:25.223Z,11.25
2022-11-18T19:24:52.646Z,10.98
2022-11-18T19:27:20.060Z,11.75
2022-11-18T19:29:47.185Z,12.00
2022-11-18T19:32:14.535Z,13.40
2022-11-18T19:34:41.145Z,12.77
2022-11-18T19:37:07.793Z,13.05
2022-11-18T19:39:35.320Z,12.43
2022-11-18T19:42:01.958Z,13.23
2022-11-18T19:44:28.605Z,13.55
2022-11-18T19:46:55.213Z,14.38
2022-11-18T19:49:22.471Z,13.70
2022-11-18T19:51:49.405Z,14.23
2022-11-18T19:54:16.012Z,14.83
2022-11-18T19:56:42.637Z,13.90
2022-11-18T19:59:10.740Z,13.60
2022-11-18T20:01:37.414Z,15.32
2022-11-18T20:04:05.625Z,14.75
2022-11-18T20:06:34.510Z,14.60
2022-11-18T20:09:01.145Z,14.82
2022-11-18T20:11:28.123Z,14.82
2022-11-18T20:13:54.750Z,14.45
2022-11-18T20:16:24.016Z,15.40
2022-11-18T20:18:56.128Z,15.77
2022-11-18T20:21:23.809Z,14.90
2022-11-18T20:23:55.205Z,14.85
2022-11-18T20:26:23.710Z,14.55
2022-11-18T20:28:57.022Z,15.38
2022-11-18T20:31:24.926Z,14.87
2022-11-18T20:33:53.311Z,14.68
2022-11-18T20:36:31.704Z,15.13
2022-11-18T20:39:00.864Z,14.38
2022-11-18T20:41:30.343Z,14.27
2022-11-18T20:43:57.445Z,15.63
2022-11-18T20:46:24.342Z,14.27
2022-11-18T20:48:51.326Z,13.77
2022-11-18T20:51:19.206Z,14.43
2022-11-18T20:53:46.469Z,13.77
2022-11-18T20:56:15.771Z,13.03
2022-11-18T20:58:42.779Z,13.35
2022-11-18T21:01:17.154Z,13.95
2022-11-18T21:03:48.956Z,14.13
2022-11-18T21:06:15.622Z,13.65
2022-11-18T21:08:42.828Z,12.63
2022-11-18T21:11:12.262Z,13.52
2022-11-18T21:14:08.476Z,13.30
2022-11-18T21:16:35.151Z,12.88
2022-11-18T21:19:04.569Z,12.70
2022-11-18T21:21:48.586Z,12.73
2022-11-18T21:24:17.615Z,12.68
2022-11-18T21:26:45.808Z,12.90
2022-11-18T21:29:14.606Z,12.65
2022-11-18T21:31:41.678Z,12.30
2022-11-18T21:34:08.710Z,12.57
2022-11-18T21:36:38.913Z,13.00
2022-11-18T21:39:09.956Z,13.35
2022-11-18T21:41:37.144Z,12.95
2022-11-18T21:44:06.024Z,12.45
2022-11-18T21:46:35.003Z,11.90
2022-11-18T21:49:02.566Z,11.85
2022-11-18T21:51:31.392Z,11.93
2022-11-18T21:53:58.900Z,12.77
2022-11-18T21:56:29.015Z,11.75
2022-11-18T21:58:56.648Z,11.77
2022-11-18T22:01:26.000Z,11.15
2022-11-18T22:03:57.590Z,11.18
2022-11-18T22:06:25.854Z,10.52
2022-11-18T22:08:53.018Z,11.25
2022-11-18T22:11:24.073Z,11.33
2022-11-18T22:13:52.065Z,10.88
2022-11-18T22:16:20.896Z,11.30
2022-11-18T22:18:54.778Z,11.95
2022-11-18T22:21:26.250Z,12.35
2022-11-18T22:23:55.863Z,12.57
2022-11-18T22:26:22.510Z,12.32
2022-11-18T22:28:53.559Z,13.52
2022-11-18T22:31:21.565Z,14.10
2022-11-18T22:33:50.014Z,13.48
2022-11-18T22:36:18.552Z,13.60
2022-11-18T22:38:45.930Z,13.73
2022-11-18T22:41:36.324Z,13.93
2022-11-18T22:44:07.601Z,14.63
2022-11-18T22:46:39.267Z,13.68
2022-11-18T22:49:07.431Z,14.87
2022-11-18T22:51:35.117Z,14.23
2022-11-18T22:54:36.591Z,15.10
2022-11-18T22:56:48.505Z,14.70
2022-11-18T22:59:15.063Z,14.52
2022-11-18T23:01:41.675Z,14.67
2022-11-18T23:04:08.411Z,14.68
2022-11-18T23:06:35.257Z,14.43
2022-11-18T23:09:02.646Z,15.40
2022-11-18T23:11:48.872Z,15.30
2022-11-18T23:14:15.597Z,14.80
2022-11-18T23:16:42.972Z,15.07
2022-11-18T23:19:12.985Z,14.98
2022-11-18T23:21:40.343Z,14.65
2022-11-18T23:24:10.480Z,15.45
2022-11-18T23:26:37.712Z,15.73
2022-11-18T23:29:04.296Z,14.55
2022-11-18T23:31:30.888Z,15.23
2022-11-18T23:33:58.257Z,14.02
2022-11-18T23:36:26.402Z,14.80
2022-11-18T23:38:53.827Z,15.47
2022-11-18T23:41:20.995Z,13.88
2022-11-18T23:43:48.689Z,14.13
2022-11-18T23:46:17.096Z,13.88
2022-11-18T23:48:44.476Z,14.30
2022-11-18T23:51:13.595Z,14.33
2022-11-18T23:53:40.687Z,14.45
2022-11-18T23:56:10.501Z,15.43
2022-11-18T23:58:41.816Z,14.63
